Etusivu
METAR-TAF:

METAR-TAF

Lentoasemat :

Sonora Municipal Airport

Sonora, Texas, Yhdysvallat

Leveyspiiri: 30-35-08N, Pituuspiiri: 100-38-54W, korkeus merenpinnasta: 652 m

Tämänhetkinen sää

Tämä raportti tehtiin 38 minuuttia sitten, kello 04.35 UTC
tyyntä
Lämpötila 10°C
Kosteus 29%
Ilmanpaine 1028 hPa
Näkyvyys: 16.1 km
selkeää

METAR: KSOA 290435Z AUTO 00000KT 10SM CLR 10/M07 A3037 RMK AO2

Aika: 23:13 (05:13 UTC)

Sääennuste

Tämä raportti tehtiin 5 tuntia ja 48 minuuttia sitten, kello 23.25 UTC
Ennuste voimassa 29. päivästä klo 00 UTC - 29. päivään klo 24 UTC
Tuuli 2 kn eri suunnista
Näkyvyys: 10 km
Hajanaisia pilviä 25000 ft:n korkeudessa
From 29. päivästä klo 1600 UTC
Tuuli 15 kn etelästä puuskistuen 23 kn:hen
Näkyvyys: 10 km
Hajonneita pilviä 25000 ft:n korkeudessa

TAF: KSOA 282325Z 2900/2924 VRB02KT P6SM SCT250 FM291600 18015G23KT P6SM BKN250

Säähavainnot ja -ennusteet yli 4000 lentoasemalta (METAR- ja TAF-raportit).

Käytössä olevat sääasemat on merkitty karttaan keltaisilla ja punaisilla pisteillä.

Aseta hiiri pisteen päälle nähdäksesi sääaseman nimen.

Klikkaa sitten nähdäksesi säähavainnot ja -ennusteet.

Kartan vaihtaminen: klikkaa mustalla rastilla varustettuja vihreitä pisteitä, niin voit zoomata sisään; viivalla varustettua vihreää pistettä, niin voit zoomata ulos tai vihreitä nuolia, niin pääset viereisille kartoille.


METAR-TAF: